LANHSA JS31 at Roatan on Jan 4th 2022, gear collapse on landing causes runway excursion

Last Update: January 4, 2022 / 20:07:21 GMT/Zulu time

Bookmark this article
Incident Facts

Date of incident
Jan 4, 2022

Classification
Accident

Airline
Lanhsa

Destination
Roatan, Honduras

Aircraft Registration
HR-AYY

ICAO Type Designator
JS31

Airport ICAO Code
MHRO

A LANHSA British Aerospace Jetstream 3101, registration HR-AYY performing a flight from an unknown point of origin to Roatan (Honduras), landed on Roatan's runway 07 at about 13:00L (19:00Z) but suffered the collapse of the right hand main gear and subsequently veered off the runway coming to rest on soft ground off the runway. There were no injuries, all occupants were safely taken off the aircraft. The aircraft sustained substantial damage.

According to Lanhsa there are two possible flights arriving in Roatan around the time, one arriving from Tegucigalpa (Honduras) and one from La Ceiba (Honduras).

Metars:
MHRO 042000Z 04006KT 9999 FEW024TCU 29/24 Q1015 A2997 NOSIG=
MHRO 041900Z 09007KT 9999 SCT022TCU 29/24 Q1016 A3000 NOSIG=
MHRO 041800Z 09008KT 9999 SCT022CB 28/24 Q1017 A3003 NOSIG=
MHRO 041700Z 09006KT 9999 SCT022TCU 28/25 Q1018 A3006 NOSIG=
MHRO 041600Z 08004KT 9999 FEW020 28/24 Q1019 A3009 NOSIG=
MHRO 041500Z 08005KT 9999 FEW020TCU SCT080 27/26 Q1019 A3009 RERA NOSIG=
MHRO 041400Z 04004KT 9999 -RA SCT020TCU BKN070 24/23 Q1018 A3006 NOSIG=
Incident Facts

Date of incident
Jan 4, 2022

Classification
Accident

Airline
Lanhsa

Destination
Roatan, Honduras

Aircraft Registration
HR-AYY

ICAO Type Designator
JS31

Airport ICAO Code
MHRO

This article is published under license from Avherald.com. © of text by Avherald.com.
Article source

You can read 2 more free articles without a subscription.

Subscribe now and continue reading without any limits!

Are you a subscriber? Login
Subscribe

Read unlimited articles and receive our daily update briefing. Gain better insights into what is happening in commercial aviation safety.

Free newsletter

Want to know more and stay ahead? Get our free weekly newsletter and join 5282 existing subscribers.

By subscribing, you accept our terms and conditions and confirm that you've read our privacy policy.

Send tip

Support AeroInside by sending a small tip amount.

Related articles

Newest articles

Subscribe today

Are you researching aviation incidents? Get access to AeroInside Insights, unlimited read access and receive the daily newsletter.

Pick your plan and subscribe

Partner

Blockaviation logo

A new way to document and demonstrate airworthiness compliance and aircraft value. Find out more.

Virtual Speech logo

ELITE Simulation Solutions is a leading global provider of Flight Simulation Training Devices, IFR training software as well as flight controls and related services. Find out more.

Get updates

Never miss an article from AeroInside. Subscribe to our free weekly newsletter and join 5282 existing subscribers.

By subscribing, you accept our terms and conditions and that you've read our privacy policy.

AeroInside Blog
Popular aircraft
Airbus A320
Boeing 737-800
Boeing 737-800 MAX
Popular airlines
American Airlines
United
Delta
Air Canada
Lufthansa
British Airways